Deunquat, Ohio
Current Conditions -  °F | °C
As of 2:15 PM on Saturday 27 Dec 2014 (Local Time) from KMNN Reporting Station
Overcast Overcast  
Wind Chill: 11°   Ceiling: 2700
Heat Index: 11°   Visibility: 10mi
Dew Point:   Wind: 13mph
Humidity: 61%   Direction: 210°SSW
Pressure: 30.05"   Gusts: 22mph
Location:  40.948°N, 83.1346°W
Report Text: KMNN 271915Z AUTO 21011G19KT 10SM BKN027 OVC044 11/04 A3005 RMK AO2 T01110039 TSNO
Loading
Personal Weather Stations






























Interactive Weather Map New forecast layout! Learn more

10-Day Weather Forecast

Advertisements
Track Severe Weather on mobile